Time;durP1;ratioP1;P1;durP2;ratioP2;P2;SDS_P1;SDS_P2;PMS_P1;PMS_P2;Temp;Humidity;BMP_temperature;BMP_pressure;BME280_temperature;BME280_humidity;BME280_pressure;Samples;Min_cycle;Max_cycle;Signal;HPM_P1;HPM_P2
2023/01/20 00:01:30;;;;;;;;;18.67;13.00;;;;;6.60;71.08;-18730.31;4971309;28;45532;-89
2023/01/20 00:03:56;;;;;;;;;14.33;11.00;;;;;6.43;70.94;-18726.03;4972862;28;45435;-89
2023/01/20 00:06:23;;;;;;;;;16.00;15.33;;;;;7.12;70.64;-18743.72;4973323;28;45439;-89
2023/01/20 00:08:53;;;;;;;;;20.33;14.67;;;;;6.68;70.97;-18732.41;4954537;28;46397;-89
2023/01/20 00:11:19;;;;;;;;;14.00;14.00;;;;;6.82;71.00;-18736.03;4972057;28;45602;-89
2023/01/20 00:13:45;;;;;;;;;17.33;14.00;;;;;7.11;71.63;-19072.41;4972084;28;45792;-89
2023/01/20 00:16:11;;;;;;;;;18.33;16.00;;;;;7.10;71.39;-19072.25;5008659;27;45755;-89
2023/01/20 00:18:38;;;;;;;;;12.67;12.33;;;;;6.84;71.18;-18736.44;4977447;28;45427;-89
2023/01/20 00:21:08;;;;;;;;;17.33;17.33;;;;;6.60;71.01;-18730.44;4980003;28;45519;-90
2023/01/20 00:23:33;;;;;;;;;22.00;17.67;;;;;6.75;71.52;-18734.34;4972983;28;45560;-90
2023/01/20 00:26:05;;;;;;;;;16.00;14.33;;;;;6.89;71.97;-19066.81;4979109;28;45481;-90
2023/01/20 00:28:32;;;;;;;;;22.00;19.33;;;;;7.08;71.73;-19071.59;4972257;28;46655;-90
2023/01/20 00:30:57;;;;;;;;;15.33;15.33;;;;;6.75;72.01;-19063.25;4972343;28;45396;-90
2023/01/20 00:33:22;;;;;;;;;18.00;14.33;;;;;7.08;71.57;-18742.53;4972328;28;45478;-89
2023/01/20 00:35:48;;;;;;;;;21.00;18.00;;;;;7.08;71.69;-18742.69;4972652;28;45469;-90
2023/01/20 00:38:14;;;;;;;;;16.33;16.33;;;;;7.06;71.35;-18742.16;4971747;28;45428;-90
2023/01/20 00:40:39;;;;;;;;;19.67;16.00;;;;;6.65;71.43;-19060.44;4972468;28;45547;-89
2023/01/20 00:43:04;;;;;;;;;22.33;20.33;;;;;7.05;71.33;-18741.91;4971894;28;45489;-90
2023/01/20 00:45:30;;;;;;;;;17.33;17.33;;;;;6.62;71.18;-18730.84;4954783;28;45695;-90
2023/01/20 00:47:55;;;;;;;;;21.67;20.33;;;;;6.68;71.46;-18732.53;4995699;28;45561;-90
2023/01/20 00:50:20;;;;;;;;;20.67;18.67;;;;;7.00;71.14;-18740.59;5018646;28;46485;-90
2023/01/20 00:52:46;;;;;;;;;13.33;13.00;;;;;6.97;71.09;-18739.94;4972771;28;45741;-90
2023/01/20 00:55:11;;;;;;;;;17.00;17.00;;;;;7.02;71.60;-18740.97;4972945;28;45638;-89
2023/01/20 00:57:37;;;;;;;;;26.00;21.00;;;;;6.94;71.52;-18739.16;4971906;28;45932;-89
2023/01/20 01:00:03;;;;;;;;;23.33;20.00;;;;;6.67;70.92;-18732.28;4954365;28;45407;-90
2023/01/20 01:02:28;;;;;;;;;21.00;17.00;;;;;7.02;71.15;-18741.13;4971681;28;45432;-89
2023/01/20 01:04:54;;;;;;;;;20.00;19.00;;;;;7.01;71.72;-18740.84;4954415;28;45544;-90
2023/01/20 01:07:19;;;;;;;;;22.67;20.33;;;;;6.72;71.18;-18404.69;4966937;28;45434;-89
2023/01/20 01:09:45;;;;;;;;;22.00;18.67;;;;;6.80;70.74;-18406.47;4971787;28;45427;-90
2023/01/20 01:12:10;;;;;;;;;27.00;22.00;;;;;6.74;71.07;-18405.19;4972000;28;46419;-90
2023/01/20 01:14:35;;;;;;;;;27.33;23.33;;;;;6.69;70.89;-18403.91;4972212;28;45748;-90
2023/01/20 01:17:01;;;;;;;;;25.67;20.67;;;;;6.61;70.95;-18401.75;4958802;28;47374;-90
2023/01/20 01:19:26;;;;;;;;;24.67;21.00;;;;;5.95;71.00;-18385.44;4979824;28;45518;-90
2023/01/20 01:21:51;;;;;;;;;23.33;21.00;;;;;6.51;71.62;-18728.13;4950531;28;45471;-89
2023/01/20 01:24:17;;;;;;;;;25.00;23.33;;;;;6.60;71.36;-18730.31;4956193;28;45863;-89
2023/01/20 01:26:42;;;;;;;;;33.50;29.75;;;;;6.68;72.00;-18732.53;4997917;28;47079;-90
2023/01/20 01:29:07;;;;;;;;;29.33;26.33;;;;;6.85;71.51;-18736.69;5016495;28;45713;-90
2023/01/20 01:31:33;;;;;;;;;24.33;23.00;;;;;6.28;71.49;-18722.38;4974737;28;45500;-91
2023/01/20 01:33:58;;;;;;;;;28.67;25.00;;;;;6.93;71.63;-18738.91;4975078;28;45494;-90
2023/01/20 01:36:23;;;;;;;;;33.00;28.00;;;;;6.54;71.15;-18729.03;4981677;28;48611;-90
2023/01/20 01:38:49;;;;;;;;;26.00;22.33;;;;;6.73;71.00;-18404.81;4995016;28;45523;-90
2023/01/20 01:41:16;;;;;;;;;28.00;22.00;;;;;6.87;71.39;-18737.22;4972819;28;45496;-87
2023/01/20 01:44:03;;;;;;;;;21.00;20.33;;;;;6.67;71.52;-18732.28;4975021;28;45446;-87
2023/01/20 01:46:29;;;;;;;;;27.00;24.67;;;;;6.55;71.18;-18400.34;4962571;28;45778;-86
2023/01/20 01:48:56;;;;;;;;;30.33;24.67;;;;;6.70;71.20;-18404.03;5037410;27;45501;-87
2023/01/20 01:51:28;;;;;;;;;27.33;23.00;;;;;6.50;71.51;-18399.06;4974409;28;45429;-86
2023/01/20 01:54:01;;;;;;;;;27.33;24.67;;;;;6.43;71.32;-18397.28;4985097;27;45443;-87
2023/01/20 01:56:28;;;;;;;;;26.67;21.00;;;;;6.61;71.41;-18401.88;4974042;28;46102;-87
2023/01/20 01:58:58;;;;;;;;;23.33;20.67;;;;;6.35;71.29;-18395.38;4985681;28;45493;-87
2023/01/20 02:01:25;;;;;;;;;22.67;18.67;;;;;6.56;71.74;-18729.41;4975284;28;45556;-87
2023/01/20 02:04:08;;;;;;;;;22.33;21.00;;;;;6.51;72.08;-18399.47;4956418;28;45905;-86
2023/01/20 02:06:39;;;;;;;;;18.33;17.00;;;;;6.27;71.53;-18393.47;4989699;28;46315;-86
2023/01/20 02:09:05;;;;;;;;;21.00;17.67;;;;;6.13;71.83;-18389.91;5034059;28;45442;-87
2023/01/20 02:11:36;;;;;;;;;23.33;18.00;;;;;6.01;71.40;-18386.97;5053805;28;45422;-87
2023/01/20 02:14:02;;;;;;;;;18.67;13.33;;;;;5.94;71.95;-18385.19;4979258;28;45733;-86
2023/01/20 02:16:43;;;;;;;;;23.33;18.33;;;;;6.46;71.55;-18398.19;4964526;28;46108;-87
2023/01/20 02:19:26;;;;;;;;;19.00;16.33;;;;;6.49;71.75;-18398.94;4974110;28;45845;-86
2023/01/20 02:22:23;;;;;;;;;17.33;15.33;;;;;6.47;71.49;-18398.31;4961306;28;45389;-87
2023/01/20 02:24:54;;;;;;;;;22.67;20.67;;;;;6.47;71.79;-18398.44;4973951;28;45779;-87
2023/01/20 02:27:30;;;;;;;;;18.33;16.67;;;;;6.23;71.48;-18392.44;4955790;28;48128;-87
2023/01/20 02:30:04;;;;;;;;;15.00;15.00;;;;;6.40;71.69;-18396.66;4973554;28;45383;-88
2023/01/20 02:32:41;;;;;;;;;19.33;17.00;;;;;6.37;71.36;-18067.03;4961599;28;45397;-87
2023/01/20 02:35:45;;;;;;;;;15.67;14.33;;;;;6.30;71.37;-18065.41;4996364;28;45434;-87
2023/01/20 02:38:22;;;;;;;;;24.67;14.33;;;;;6.30;71.56;-18065.53;5013300;28;48374;-86
2023/01/20 02:41:11;;;;;;;;;15.00;11.67;;;;;6.29;71.15;-18065.16;5013361;28;45574;-87
2023/01/20 02:43:57;;;;;;;;;11.33;7.33;;;;;6.26;71.33;-17735.81;5017247;28;45505;-86
2023/01/20 02:46:31;;;;;;;;;15.33;13.33;;;;;6.27;71.27;-18064.66;5019701;28;45487;-87
2023/01/20 02:49:17;;;;;;;;;21.00;12.33;;;;;6.27;71.58;-18064.66;5001225;28;45525;-87
2023/01/20 02:51:55;;;;;;;;;15.67;11.00;;;;;6.21;71.81;-18063.16;5013176;28;45639;-86
2023/01/20 02:54:22;;;;;;;;;16.67;13.67;;;;;5.64;71.58;-18049.31;5013594;28;45403;-86
2023/01/20 02:56:51;;;;;;;;;10.33;8.00;;;;;5.77;71.25;-18052.56;5013529;28;45481;-87
2023/01/20 02:59:23;;;;;;;;;15.33;12.00;;;;;5.95;71.97;-18056.81;5012839;28;46697;-86
2023/01/20 03:02:03;;;;;;;;;10.33;10.33;;;;;5.59;71.89;-18048.19;5012743;28;45438;-87
2023/01/20 03:04:35;;;;;;;;;15.33;14.67;;;;;5.55;72.03;-18047.06;5012816;28;45442;-87
2023/01/20 03:07:03;;;;;;;;;13.33;11.00;;;;;6.18;71.80;-18062.41;5013971;28;45849;-87
2023/01/20 03:09:42;;;;;;;;;11.67;10.00;;;;;5.70;71.87;-18050.81;5012477;28;45804;-86
2023/01/20 03:12:33;;;;;;;;;14.67;12.00;;;;;5.96;71.78;-18057.06;4983891;28;45450;-87
2023/01/20 03:14:59;;;;;;;;;17.00;12.67;;;;;5.92;71.65;-18384.69;4993879;28;45494;-87
2023/01/20 03:17:24;;;;;;;;;17.33;16.67;;;;;5.55;71.64;-18047.19;4974444;28;45481;-87
2023/01/20 03:19:50;;;;;;;;;16.00;14.33;;;;;5.86;72.33;-18383.28;4973036;28;46113;-86
2023/01/20 03:22:16;;;;;;;;;19.67;13.00;;;;;6.14;72.51;-18390.16;4973411;28;45657;-87
2023/01/20 03:24:45;;;;;;;;;13.33;11.67;;;;;5.86;72.09;-18383.16;4973607;28;45502;-87
2023/01/20 03:27:11;;;;;;;;;19.33;16.67;;;;;5.60;72.19;-18376.78;4973502;28;45465;-87
2023/01/20 03:29:36;;;;;;;;;19.67;17.00;;;;;5.93;72.04;-18384.94;4973048;28;45524;-87
2023/01/20 03:32:06;;;;;;;;;12.00;12.00;;;;;5.43;71.77;-18372.56;4973092;28;45447;-87
2023/01/20 03:34:35;;;;;;;;;14.67;12.00;;;;;5.89;71.95;-18055.56;4973417;28;45475;-87
2023/01/20 03:37:03;;;;;;;;;15.67;11.67;;;;;5.75;71.88;-18052.06;4973229;28;45510;-87
2023/01/20 03:39:29;;;;;;;;;16.00;10.67;;;;;5.80;71.75;-18053.19;4955424;28;48188;-87
2023/01/20 03:42:17;;;;;;;;;9.00;6.67;;;;;5.55;71.27;-17718.75;4972715;28;45947;-87
2023/01/20 03:45:07;;;;;;;;;16.33;14.33;;;;;5.90;71.77;-17727.16;4975001;28;45500;-86
2023/01/20 03:47:50;;;;;;;;;16.33;13.67;;;;;5.89;71.72;-17727.03;4961822;28;45381;-86
2023/01/20 03:50:37;;;;;;;;;13.33;12.00;;;;;5.89;71.51;-17726.91;4972403;28;45518;-87
2023/01/20 03:53:02;;;;;;;;;19.00;17.33;;;;;5.89;71.73;-18055.56;4972376;28;45406;-86
2023/01/20 03:55:40;;;;;;;;;18.00;11.00;;;;;5.20;72.25;-18038.59;4972714;28;45618;-86
2023/01/20 03:58:11;;;;;;;;;19.67;16.00;;;;;5.76;71.86;-18052.31;4968164;28;45412;-86
2023/01/20 04:00:41;;;;;;;;;18.00;13.00;;;;;5.83;72.15;-18054.06;4971967;28;45607;-87
2023/01/20 04:03:10;;;;;;;;;19.67;17.33;;;;;5.47;72.43;-18373.59;4968806;28;45494;-86
2023/01/20 04:05:38;;;;;;;;;19.67;16.00;;;;;5.96;72.05;-18385.56;4972784;28;45567;-87
2023/01/20 04:08:08;;;;;;;;;19.67;18.67;;;;;5.74;72.41;-18380.22;4972914;28;45426;-86
2023/01/20 04:10:37;;;;;;;;;18.00;17.00;;;;;5.69;72.14;-18378.94;4972295;28;46768;-86
2023/01/20 04:13:03;;;;;;;;;12.00;12.00;;;;;5.75;71.62;-18052.06;4972915;28;45395;-86
2023/01/20 04:15:34;;;;;;;;;19.00;17.33;;;;;5.47;71.73;-18045.31;5019001;27;45370;-86
2023/01/20 04:18:15;;;;;;;;;17.33;14.33;;;;;5.37;71.18;-18042.69;4972379;28;45408;-87
2023/01/20 04:20:46;;;;;;;;;15.00;14.00;;;;;5.95;71.37;-17728.38;4971855;28;46433;-87
2023/01/20 04:23:31;;;;;;;;;14.67;11.67;;;;;6.00;71.48;-17729.59;4954979;28;45686;-86
2023/01/20 04:25:56;;;;;;;;;19.67;17.00;;;;;5.79;71.54;-17724.47;4971838;28;45348;-87
2023/01/20 04:28:22;;;;;;;;;17.33;16.00;;;;;5.35;71.46;-17713.97;4972548;28;45419;-86
2023/01/20 04:30:47;;;;;;;;;18.00;16.00;;;;;5.76;71.43;-17723.88;4971631;28;46055;-87
2023/01/20 04:33:13;;;;;;;;;16.33;14.67;;;;;5.51;71.88;-17717.88;4972266;28;45426;-87
2023/01/20 04:35:38;;;;;;;;;18.67;15.33;;;;;5.44;71.31;-17387.88;4972532;28;45416;-86
2023/01/20 04:38:03;;;;;;;;;15.67;14.33;;;;;5.64;71.51;-17721.06;4972623;28;45720;-86
2023/01/20 04:40:29;;;;;;;;;20.67;17.33;;;;;5.37;71.13;-17386.19;4972087;28;46245;-86
2023/01/20 04:42:54;;;;;;;;;17.00;15.00;;;;;5.88;71.52;-17398.25;4971773;28;45773;-87
2023/01/20 04:45:19;;;;;;;;;18.67;15.67;;;;;5.43;71.45;-17387.75;4972582;28;45773;-86
2023/01/20 04:47:45;;;;;;;;;23.67;18.33;;;;;4.83;70.95;-17373.66;4954072;28;45425;-86
2023/01/20 04:50:12;;;;;;;;;17.00;13.33;;;;;5.52;71.21;-17389.66;4971671;28;45431;-86
2023/01/20 04:52:38;;;;;;;;;18.33;13.67;;;;;5.76;71.47;-17395.41;4971667;28;45582;-86
2023/01/20 04:55:04;;;;;;;;;20.67;18.00;;;;;5.29;71.10;-17384.53;4971658;28;45855;-86
2023/01/20 04:57:29;;;;;;;;;24.00;18.67;;;;;5.64;71.35;-17392.66;4971696;28;45366;-86
2023/01/20 04:59:54;;;;;;;;;16.00;15.00;;;;;5.27;71.07;-17384.06;4973739;28;45711;-85
2023/01/20 05:02:20;;;;;;;;;19.00;17.67;;;;;5.87;70.83;-17069.34;4974582;28;45383;-86
2023/01/20 05:04:45;;;;;;;;;20.67;17.67;;;;;5.87;70.64;-17069.34;4974495;28;45746;-86
2023/01/20 05:07:10;;;;;;;;;24.67;21.33;;;;;5.06;70.81;-17051.03;4967012;28;45412;-86
2023/01/20 05:09:36;;;;;;;;;23.67;23.00;;;;;5.48;70.68;-17060.59;4974710;28;45426;-86
2023/01/20 05:12:01;;;;;;;;;23.33;20.00;;;;;5.43;70.35;-16731.06;4974402;28;45430;-86
2023/01/20 05:14:27;;;;;;;;;26.33;22.00;;;;;5.26;70.52;-17055.56;4977605;28;45447;-86
2023/01/20 05:16:52;;;;;;;;;25.00;21.33;;;;;5.50;70.99;-16732.53;4974929;28;45454;-86
2023/01/20 05:19:18;;;;;;;;;16.67;16.33;;;;;5.45;70.70;-16731.53;4974212;28;45977;-86
2023/01/20 05:21:43;;;;;;;;;31.67;21.33;;;;;5.66;70.87;-16736.09;4974537;28;45423;-86
2023/01/20 05:24:08;;;;;;;;;22.67;21.67;;;;;5.71;71.31;-17065.72;4970541;28;45792;-87
2023/01/20 05:26:34;;;;;;;;;27.33;21.00;;;;;4.88;71.20;-17046.69;4971382;28;45785;-86
2023/01/20 05:28:59;;;;;;;;;26.67;24.67;;;;;4.91;70.88;-17047.53;4974160;28;46171;-85
2023/01/20 05:31:25;;;;;;;;;19.67;19.67;;;;;4.74;71.23;-17043.56;4964944;28;45418;-86
2023/01/20 05:33:50;;;;;;;;;25.67;23.00;;;;;5.68;71.63;-17393.59;4973658;28;45776;-87
2023/01/20 05:36:16;;;;;;;;;23.67;21.00;;;;;5.27;71.27;-17055.81;4976418;28;45443;-87
2023/01/20 05:38:41;;;;;;;;;25.00;21.33;;;;;5.19;71.59;-17382.03;4978646;28;46575;-87
2023/01/20 05:41:08;;;;;;;;;27.00;23.33;;;;;5.75;71.17;-17395.16;4980049;28;45477;-87
2023/01/20 05:43:34;;;;;;;;;22.67;20.00;;;;;5.74;71.47;-17066.31;4974782;28;45369;-86
2023/01/20 05:46:00;;;;;;;;;24.67;22.33;;;;;5.79;71.02;-17067.47;4974730;28;45633;-87
2023/01/20 05:48:26;;;;;;;;;18.67;17.00;;;;;5.79;71.39;-17067.47;4973960;28;45657;-86
2023/01/20 05:50:51;;;;;;;;;29.00;24.00;;;;;5.77;71.29;-17067.13;4974233;28;45537;-87
2023/01/20 05:53:17;;;;;;;;;28.50;24.00;;;;;4.95;71.21;-17048.44;4974273;28;46306;-86
2023/01/20 05:55:43;;;;;;;;;24.00;20.00;;;;;5.77;71.28;-17067.13;4956761;28;45693;-86
2023/01/20 05:58:09;;;;;;;;;27.67;22.67;;;;;5.79;71.00;-17067.59;4976939;28;45485;-87
2023/01/20 06:00:35;;;;;;;;;34.67;23.33;;;;;5.20;70.91;-17054.06;4973910;28;45454;-87
2023/01/20 06:03:01;;;;;;;;;30.33;24.00;;;;;5.01;70.79;-17049.84;4973496;28;45509;-87
2023/01/20 06:05:26;;;;;;;;;25.00;22.00;;;;;5.77;71.07;-17067.00;4973512;28;45588;-87
2023/01/20 06:07:55;;;;;;;;;22.67;20.67;;;;;5.66;70.81;-16736.19;4973399;28;46548;-87
2023/01/20 06:10:26;;;;;;;;;28.67;21.00;;;;;5.14;70.29;-16724.47;4959482;28;46257;-86
2023/01/20 06:12:52;;;;;;;;;26.67;23.33;;;;;5.03;70.32;-16394.00;4973173;28;45439;-86
2023/01/20 06:15:17;;;;;;;;;26.67;22.33;;;;;4.88;70.43;-16390.56;4976532;28;45620;-87
2023/01/20 06:17:43;;;;;;;;;30.00;22.67;;;;;5.21;70.65;-16397.91;4975050;28;45685;-86
2023/01/20 06:20:09;;;;;;;;;23.67;23.00;;;;;5.08;70.91;-16395.00;4984750;28;45452;-87
2023/01/20 06:22:35;;;;;;;;;23.00;19.67;;;;;5.10;70.07;-16067.09;4972435;28;45541;-87
2023/01/20 06:25:00;;;;;;;;;27.33;20.67;;;;;4.98;69.88;-15736.41;4977105;28;45860;-87
2023/01/20 06:27:26;;;;;;;;;29.00;22.67;;;;;5.53;70.17;-16076.34;4976180;28;46213;-87
2023/01/20 06:29:51;;;;;;;;;22.67;19.00;;;;;5.40;70.28;-15745.09;4973665;28;45421;-87
2023/01/20 06:32:16;;;;;;;;;24.33;18.67;;;;;5.46;70.39;-15746.47;4965232;28;45515;-87
2023/01/20 06:34:42;;;;;;;;;24.00;22.00;;;;;5.48;70.13;-16075.34;4979635;28;45432;-87
2023/01/20 06:37:07;;;;;;;;;26.00;22.33;;;;;5.04;70.46;-16066.03;4983553;28;45647;-87
2023/01/20 06:39:33;;;;;;;;;22.67;22.67;;;;;4.89;70.89;-16062.66;4983178;28;45441;-86
2023/01/20 06:41:59;;;;;;;;;20.67;18.00;;;;;5.12;70.22;-16067.53;4978681;28;45596;-87
2023/01/20 06:44:25;;;;;;;;;18.67;15.33;;;;;5.53;70.29;-16076.22;4973962;28;45611;-86
2023/01/20 06:46:51;;;;;;;;;24.33;20.33;;;;;5.42;70.57;-16074.06;4979314;28;45685;-86
2023/01/20 06:49:17;;;;;;;;;21.33;18.33;;;;;5.59;70.50;-16077.63;4987109;27;45335;-86
2023/01/20 06:51:43;;;;;;;;;17.00;16.67;;;;;5.60;70.15;-16077.75;4971029;28;45507;-87
2023/01/20 06:54:08;;;;;;;;;22.00;21.67;;;;;5.23;69.65;-15741.69;4988508;28;45464;-86
2023/01/20 06:56:34;;;;;;;;;23.00;19.67;;;;;5.63;70.22;-16078.50;4974819;28;45847;-86
2023/01/20 06:58:59;;;;;;;;;17.33;16.67;;;;;5.63;69.87;-15749.84;4983203;28;45543;-86
2023/01/20 07:01:28;;;;;;;;;21.67;18.67;;;;;5.58;69.90;-15748.91;4974603;28;45585;-86
2023/01/20 07:03:53;;;;;;;;;28.00;25.33;;;;;5.17;69.90;-15740.31;4966411;28;45444;-87
2023/01/20 07:06:24;;;;;;;;;15.67;13.00;;;;;5.31;69.60;-15414.78;4985139;28;46246;-86
2023/01/20 07:08:49;;;;;;;;;23.00;22.00;;;;;5.67;69.73;-15422.22;4959956;28;45490;-86
2023/01/20 07:11:15;;;;;;;;;20.00;17.67;;;;;5.40;69.49;-15416.75;4985109;28;45536;-86
2023/01/20 07:13:41;;;;;;;;;26.33;22.33;;;;;5.50;69.60;-15418.81;4979825;28;45434;-86
2023/01/20 07:16:07;;;;;;;;;24.33;21.33;;;;;5.69;69.58;-15422.53;5002952;28;46608;-87
2023/01/20 07:18:32;;;;;;;;;20.33;18.00;;;;;4.97;69.63;-15736.31;4974160;28;45746;-86
2023/01/20 07:20:59;;;;;;;;;25.25;24.25;;;;;5.74;69.50;-15423.53;4980564;28;45856;-85
2023/01/20 07:23:24;;;;;;;;;23.33;21.00;;;;;5.17;69.58;-15412.00;4978218;28;45483;-86
2023/01/20 07:26:09;;;;;;;;;21.67;19.67;;;;;5.80;69.05;-15424.69;4958151;28;45785;-86
2023/01/20 07:28:36;;;;;;;;;23.00;21.67;;;;;5.39;69.10;-15416.53;4986470;28;45500;-86
2023/01/20 07:31:12;;;;;;;;;21.67;18.67;;;;;5.56;69.01;-15419.84;5009354;28;45446;-89
2023/01/20 07:33:38;;;;;;;;;19.00;18.67;;;;;5.81;68.95;-15425.00;4992693;28;45733;-87
2023/01/20 07:36:05;;;;;;;;;28.00;23.67;;;;;5.40;68.63;-15088.16;4977778;28;46066;-86
2023/01/20 07:38:31;;;;;;;;;24.33;22.33;;;;;5.46;68.42;-15089.47;4973504;28;45518;-85
2023/01/20 07:41:00;;;;;;;;;20.00;17.00;;;;;5.89;68.92;-15097.78;4956217;28;45379;-90
2023/01/20 07:43:26;;;;;;;;;19.00;16.67;;;;;5.46;68.61;-15089.38;4971943;28;45517;-89
2023/01/20 07:45:56;;;;;;;;;25.00;21.33;;;;;5.49;68.24;-15090.06;4989852;28;45740;-90
2023/01/20 07:48:22;;;;;;;;;20.33;18.67;;;;;5.21;68.46;-15084.53;4984249;28;45535;-89
2023/01/20 07:50:47;;;;;;;;;25.67;24.00;;;;;5.37;68.59;-15087.66;4972394;28;45472;-89
2023/01/20 07:53:12;;;;;;;;;23.00;21.00;;;;;5.99;68.33;-15099.81;4982640;28;45507;-88
2023/01/20 07:55:38;;;;;;;;;21.33;19.33;;;;;5.07;68.43;-15081.84;4985901;28;45552;-89
2023/01/20 07:58:03;;;;;;;;;19.67;19.00;;;;;5.11;67.91;-14754.19;4973858;28;45784;-90
2023/01/20 08:00:30;;;;;;;;;31.00;26.25;;;;;6.02;67.77;-14771.56;4969474;28;45451;-89
2023/01/20 08:02:55;;;;;;;;;23.00;21.00;;;;;5.62;68.08;-14763.94;4979802;28;45520;-89
2023/01/20 08:05:21;;;;;;;;;24.67;21.33;;;;;4.41;67.91;-14740.78;4978314;28;45432;-89
2023/01/20 08:07:52;;;;;;;;;24.33;22.00;;;;;6.03;68.25;-14442.81;4957452;28;45715;-89
2023/01/20 08:10:18;;;;;;;;;28.33;20.33;;;;;5.42;67.51;-14431.50;4961289;28;45501;-89
2023/01/20 08:12:43;;;;;;;;;26.33;20.67;;;;;5.80;67.71;-14438.63;4975573;28;45622;-88
2023/01/20 08:15:09;;;;;;;;;34.00;26.25;;;;;5.63;67.67;-14435.41;5043184;27;45797;-89
2023/01/20 08:17:35;;;;;;;;;23.00;20.67;;;;;5.75;66.99;-14437.66;4953900;28;45463;-89
2023/01/20 08:20:00;;;;;;;;;23.00;20.00;;;;;6.10;67.04;-14444.13;4961056;28;45494;-88
2023/01/20 08:22:25;;;;;;;;;34.25;26.75;;;;;5.82;68.09;-14438.91;4967570;28;45572;-89
2023/01/20 08:24:51;;;;;;;;;21.67;21.67;;;;;6.07;67.50;-14772.44;4972605;28;45660;-88
2023/01/20 08:27:16;;;;;;;;;25.33;21.00;;;;;5.76;67.71;-14437.75;4966394;28;45857;-85
2023/01/20 08:29:41;;;;;;;;;19.67;17.67;;;;;6.24;67.27;-14446.78;4973286;28;45420;-85
2023/01/20 08:32:07;;;;;;;;;35.25;32.50;;;;;6.27;67.21;-14447.25;4973304;28;45418;-86
2023/01/20 08:34:33;;;;;;;;;24.00;20.67;;;;;6.37;67.27;-14778.22;4972213;28;45403;-86
2023/01/20 08:36:58;;;;;;;;;18.00;17.00;;;;;6.34;66.98;-14777.72;4972944;28;45451;-86
2023/01/20 08:39:24;;;;;;;;;19.67;19.67;;;;;6.45;66.93;-14779.78;4973264;28;45421;-85
2023/01/20 08:41:49;;;;;;;;;22.33;19.67;;;;;5.97;66.74;-14441.75;4972382;28;45462;-91
2023/01/20 08:44:16;;;;;;;;;18.00;18.00;;;;;6.06;66.33;-14114.56;4967143;28;45559;-89
2023/01/20 08:46:43;;;;;;;;;21.33;15.00;;;;;6.43;66.48;-14121.09;4973137;28;45388;-90
2023/01/20 08:49:12;;;;;;;;;23.67;18.67;;;;;6.00;67.14;-14442.31;4965707;28;45511;-86
2023/01/20 08:51:40;;;;;;;;;23.00;18.00;;;;;6.20;66.98;-14774.97;4975921;28;45577;-86
2023/01/20 08:54:06;;;;;;;;;21.67;15.33;;;;;6.61;66.75;-14782.78;4972345;28;46510;-86
2023/01/20 08:56:32;;;;;;;;;21.00;16.00;;;;;6.10;67.12;-14773.13;4968804;28;45380;-86
2023/01/20 08:58:58;;;;;;;;;17.67;16.67;;;;;6.70;67.20;-15113.75;4973246;28;45419;-86
2023/01/20 09:01:26;;;;;;;;;12.00;12.00;;;;;6.75;67.41;-15114.75;4972738;28;45537;-86
2023/01/20 09:03:53;;;;;;;;;17.00;16.67;;;;;6.79;67.21;-15115.44;4972388;28;45990;-85
2023/01/20 09:06:20;;;;;;;;;22.33;18.33;;;;;6.64;67.63;-15441.69;4972562;28;45366;-86
2023/01/20 09:08:46;;;;;;;;;18.00;17.67;;;;;6.63;67.12;-15441.38;5013861;28;45640;-86
2023/01/20 09:11:14;;;;;;;;;17.33;17.33;;;;;6.90;66.99;-15446.81;4992574;28;45430;-85
2023/01/20 09:13:40;;;;;;;;;19.67;19.00;;;;;6.92;66.96;-15117.94;4972645;28;45574;-85
2023/01/20 09:16:07;;;;;;;;;15.00;13.67;;;;;6.95;67.17;-15118.56;5016439;28;45853;-86
2023/01/20 09:18:33;;;;;;;;;19.33;16.33;;;;;7.01;66.60;-15449.00;5023901;28;45443;-86
2023/01/20 09:21:00;;;;;;;;;19.00;14.67;;;;;7.07;66.72;-15450.22;4988138;28;45543;-86
2023/01/20 09:23:27;;;;;;;;;17.33;12.67;;;;;7.13;66.81;-15451.47;4981563;28;46965;-86
2023/01/20 09:25:53;;;;;;;;;18.33;13.33;;;;;7.16;66.86;-15452.19;4972129;28;45470;-86
2023/01/20 09:28:19;;;;;;;;;18.00;15.00;;;;;6.97;66.82;-15777.66;4955022;28;45426;-86
2023/01/20 09:30:44;;;;;;;;;13.00;12.00;;;;;7.27;66.46;-15454.34;4972452;28;45664;-85
2023/01/20 09:33:11;;;;;;;;;16.00;13.00;;;;;7.32;66.66;-15784.84;4971047;28;46429;-86
2023/01/20 09:35:36;;;;;;;;;13.00;12.00;;;;;7.37;66.68;-15785.88;4971647;28;45775;-85
2023/01/20 09:44:19;;;;;;;;;15.67;14.67;;;;;7.35;66.77;-15455.88;4968375;28;46080;-87
2023/01/20 09:47:18;;;;;;;;;13.67;12.33;;;;;7.37;66.95;-15785.88;5015157;28;45537;-87
2023/01/20 09:53:19;;;;;;;;;14.67;14.33;;;;;7.48;67.13;-16117.53;5015756;28;45613;-86
2023/01/20 09:55:57;;;;;;;;;0.67;0.67;;;;;7.48;67.91;-16447.00;5007246;28;47307;-85
2023/01/20 09:58:39;;;;;;;;;11.33;10.00;;;;;7.48;68.84;-17106.03;5014009;28;45849;-86
2023/01/20 10:01:07;;;;;;;;;15.67;11.67;;;;;7.45;69.04;-17105.34;5011906;28;45531;-85
2023/01/20 10:03:58;;;;;;;;;12.00;10.67;;;;;7.44;69.57;-17434.50;5011528;28;45616;-87
2023/01/20 10:06:43;;;;;;;;;12.67;10.33;;;;;7.42;69.98;-17763.38;5019951;28;46655;-84
2023/01/20 10:09:22;;;;;;;;;12.00;9.67;;;;;7.55;69.79;-17766.53;5004725;28;45527;-85
2023/01/20 10:11:54;;;;;;;;;11.00;10.00;;;;;7.63;69.31;-17768.25;5015382;28;45544;-86
2023/01/20 10:14:31;;;;;;;;;10.67;9.33;;;;;7.58;69.11;-17767.25;5015044;28;45551;-85
2023/01/20 10:17:08;;;;;;;;;11.33;7.00;;;;;7.67;69.35;-17769.34;5015119;28;46398;-86
2023/01/20 10:19:47;;;;;;;;;8.00;8.00;;;;;7.74;68.74;-17771.03;5014095;28;45470;-86
2023/01/20 10:22:19;;;;;;;;;8.33;7.00;;;;;7.80;69.45;-17772.38;5003885;28;45616;-89
2023/01/20 10:25:00;;;;;;;;;10.67;7.33;;;;;7.84;68.80;-17773.34;4964512;28;45454;-89
2023/01/20 10:27:29;;;;;;;;;6.33;6.00;;;;;7.79;68.84;-17772.25;4972244;28;46407;-88
2023/01/20 10:30:08;;;;;;;;;8.33;8.33;;;;;8.00;69.13;-18106.88;4974395;28;45402;-88
2023/01/20 10:32:37;;;;;;;;;9.33;8.00;;;;;7.94;68.70;-17775.78;4981009;28;45990;-90
2023/01/20 10:35:14;;;;;;;;;6.00;6.00;;;;;8.21;68.33;-17782.25;5003019;28;45485;-89
2023/01/20 10:37:40;;;;;;;;;8.00;7.00;;;;;8.20;67.92;-17782.00;4972105;28;47379;-87
2023/01/20 10:40:18;;;;;;;;;6.33;4.00;;;;;8.21;67.33;-17782.25;4973832;28;45530;-86
2023/01/20 10:42:49;;;;;;;;;11.00;11.00;;;;;8.40;67.28;-17786.63;4974862;28;45827;-86
2023/01/20 10:45:54;;;;;;;;;8.00;8.00;;;;;8.47;66.69;-17458.41;4974774;28;45494;-86
2023/01/20 10:48:49;;;;;;;;;8.67;7.00;;;;;8.54;67.05;-17460.09;4973971;28;45505;-87
2023/01/20 10:51:19;;;;;;;;;11.00;7.00;;;;;8.62;66.44;-17462.00;4966964;28;45413;-87
2023/01/20 10:53:52;;;;;;;;;9.67;7.67;;;;;8.68;66.08;-17463.28;4974058;28;45393;-86
2023/01/20 10:56:52;;;;;;;;;9.67;9.67;;;;;8.74;65.87;-17134.66;4981327;28;45469;-86
2023/01/20 10:59:30;;;;;;;;;7.33;7.33;;;;;8.84;65.49;-17136.84;4972796;28;46377;-86
2023/01/20 11:02:03;;;;;;;;;11.00;9.00;;;;;8.85;65.14;-17137.09;4974024;28;45457;-87
2023/01/20 11:04:30;;;;;;;;;6.67;6.00;;;;;8.74;65.02;-17134.53;4982075;28;45419;-85
2023/01/20 11:06:59;;;;;;;;;12.33;9.00;;;;;8.84;64.91;-17136.97;4974396;28;45627;-87
2023/01/20 11:09:36;;;;;;;;;8.00;7.00;;;;;9.02;64.63;-16810.66;4973911;28;45918;-86
2023/01/20 11:12:09;;;;;;;;;12.33;12.33;;;;;8.65;64.36;-16472.50;4965852;28;45744;-85
2023/01/20 11:14:34;;;;;;;;;7.00;7.00;;;;;8.82;63.88;-15815.72;4987651;28;45821;-87
2023/01/20 11:17:06;;;;;;;;;7.00;7.00;;;;;8.59;64.01;-15810.88;4980024;28;45548;-86
2023/01/20 11:19:46;;;;;;;;;12.00;10.33;;;;;8.59;64.05;-15811.00;4972445;28;45976;-87
2023/01/20 11:22:21;;;;;;;;;12.33;9.00;;;;;8.61;64.59;-15811.41;5044006;28;45592;-87
2023/01/20 11:24:51;;;;;;;;;8.00;8.00;;;;;8.48;64.59;-15808.56;5008030;28;45590;-87
2023/01/20 11:27:20;;;;;;;;;8.33;8.33;;;;;8.45;64.54;-15477.97;4994234;28;45490;-87
2023/01/20 11:29:59;;;;;;;;;12.00;9.33;;;;;8.32;64.75;-15805.41;4973575;28;45741;-86
2023/01/20 11:32:40;;;;;;;;;9.00;9.00;;;;;8.53;65.03;-16139.69;4974062;28;45423;-87
2023/01/20 11:35:21;;;;;;;;;12.00;8.00;;;;;8.90;64.42;-16147.59;4976616;28;45581;-85
2023/01/20 11:37:47;;;;;;;;;7.33;7.00;;;;;8.94;63.56;-16148.44;4971243;28;45429;-87
2023/01/20 11:40:22;;;;;;;;;8.00;8.00;;;;;9.18;63.55;-16153.41;4973534;28;45492;-85